Terminal Aerodrome Forecast
Issued by NWS Sterling, VA

Current Version | Previous Version | Graphics & Text | Print | Product List | Glossary On
Versions: 1 2 3 4 5 6 7 8 9 10 11 12 13 14 15 16 17 18 19 20 21 22
000
FTUS41 KLWX 240901 AAA
TAFDCA
TAF AMD
KDCA 240901Z 2409/2506 33012G18KT P6SM FEW060
     FM241000 32011KT P6SM FEW060
     FM241400 30013G22KT P6SM SKC
     FM250000 30007KT P6SM FEW250
     FM250500 VRB03KT P6SM SCT200=

USA.gov is the U.S. government's official web portal to all federal, state and local government web resources and services.